createdAt,value
2018-02-18T00:00:35.474Z,92.40
2018-02-18T00:03:04.555Z,92.30
2018-02-18T00:05:32.708Z,92.20
2018-02-18T00:08:00.873Z,92.30
2018-02-18T00:10:28.931Z,92.00
2018-02-18T00:12:57.007Z,92.20
2018-02-18T00:15:25.090Z,92.10
2018-02-18T00:17:53.138Z,92.20
2018-02-18T00:20:22.091Z,92.30
2018-02-18T00:22:50.320Z,92.30
2018-02-18T00:25:19.197Z,92.30
2018-02-18T00:27:47.562Z,92.30
2018-02-18T00:30:15.746Z,92.50
2018-02-18T00:32:43.836Z,92.40
2018-02-18T00:35:11.887Z,92.10
2018-02-18T00:37:40.183Z,91.90
2018-02-18T00:40:08.239Z,91.80
2018-02-18T00:42:37.199Z,92.40
2018-02-18T00:45:05.482Z,92.30
2018-02-18T00:47:33.666Z,92.50
2018-02-18T00:50:01.732Z,92.30
2018-02-18T00:52:29.915Z,92.50
2018-02-18T00:54:58.753Z,92.70
2018-02-18T00:57:27.936Z,92.70
2018-02-18T00:59:56.151Z,92.60
2018-02-18T01:02:24.220Z,92.70
2018-02-18T01:04:53.065Z,92.20
2018-02-18T01:07:21.173Z,92.10
2018-02-18T01:09:49.365Z,92.20
2018-02-18T01:12:17.497Z,92.00
2018-02-18T01:14:45.658Z,91.60
2018-02-18T01:17:13.799Z,91.70
2018-02-18T01:19:41.852Z,91.90
2018-02-18T01:22:09.930Z,91.40
2018-02-18T01:24:38.068Z,91.30
2018-02-18T01:27:06.102Z,91.40
2018-02-18T01:29:34.182Z,91.50
2018-02-18T01:32:02.234Z,91.70
2018-02-18T01:34:30.292Z,91.90
2018-02-18T01:36:58.348Z,91.70
2018-02-18T01:39:26.408Z,91.60
2018-02-18T01:41:54.591Z,91.20
2018-02-18T01:44:22.607Z,91.40
2018-02-18T01:46:51.475Z,91.70
2018-02-18T01:49:19.541Z,91.60
2018-02-18T01:51:47.616Z,91.20
2018-02-18T01:54:15.671Z,91.10
2018-02-18T01:56:44.488Z,91.30
2018-02-18T01:59:12.616Z,91.30
2018-02-18T02:01:40.668Z,91.50
2018-02-18T02:04:08.724Z,91.00
2018-02-18T02:06:37.534Z,91.00
2018-02-18T02:09:05.618Z,90.90
2018-02-18T02:11:34.426Z,91.10
2018-02-18T02:14:02.504Z,91.10
2018-02-18T02:16:30.567Z,90.80
2018-02-18T02:18:59.379Z,90.60
2018-02-18T02:21:28.231Z,90.40
2018-02-18T02:23:56.283Z,90.40
2018-02-18T02:26:24.331Z,90.60
2018-02-18T02:28:53.152Z,90.90
2018-02-18T02:31:21.241Z,90.90
2018-02-18T02:33:49.294Z,90.80
2018-02-18T02:36:17.344Z,90.90
2018-02-18T02:38:45.439Z,90.60
2018-02-18T02:41:13.494Z,90.60
2018-02-18T02:43:41.569Z,90.60
2018-02-18T02:46:09.642Z,90.80
2018-02-18T02:48:37.752Z,90.90
2018-02-18T02:51:05.824Z,90.60
2018-02-18T02:53:33.905Z,90.70
2018-02-18T02:56:01.957Z,90.80
2018-02-18T02:58:30.771Z,91.20
2018-02-18T03:00:58.857Z,91.20
2018-02-18T03:03:26.917Z,91.20
2018-02-18T03:05:54.982Z,91.10
2018-02-18T03:08:23.185Z,91.10
2018-02-18T03:10:51.226Z,91.20
2018-02-18T03:13:19.333Z,91.00
2018-02-18T03:15:47.367Z,90.80
2018-02-18T03:18:15.420Z,91.20
2018-02-18T03:20:43.520Z,90.80
2018-02-18T03:23:11.608Z,90.80
2018-02-18T03:25:39.666Z,90.90
2018-02-18T03:28:07.728Z,91.10
2018-02-18T03:30:35.860Z,91.40
2018-02-18T03:33:04.730Z,91.70
2018-02-18T03:35:32.781Z,91.60
2018-02-18T03:38:00.841Z,91.90
2018-02-18T03:40:28.900Z,91.70
2018-02-18T03:42:57.723Z,91.80
2018-02-18T03:45:25.884Z,91.80
2018-02-18T03:47:54.729Z,92.10
2018-02-18T03:50:22.862Z,92.10
2018-02-18T03:52:51.816Z,91.60
2018-02-18T03:55:19.892Z,91.60
2018-02-18T03:57:47.957Z,91.60
2018-02-18T04:00:16.047Z,91.50
2018-02-18T04:02:44.092Z,91.20
2018-02-18T04:05:12.157Z,91.20
2018-02-18T04:07:40.204Z,91.10
2018-02-18T04:10:08.270Z,91.00
2018-02-18T04:12:36.331Z,91.00
2018-02-18T04:15:05.280Z,90.90
2018-02-18T04:17:33.374Z,91.10
2018-02-18T04:20:01.429Z,90.90
2018-02-18T04:22:29.583Z,90.90
2018-02-18T04:24:57.645Z,90.60
2018-02-18T04:27:25.780Z,90.80
2018-02-18T04:29:53.865Z,90.50
2018-02-18T04:32:21.914Z,90.90
2018-02-18T04:34:50.151Z,91.00
2018-02-18T04:37:18.960Z,90.70
2018-02-18T04:39:47.002Z,90.70
2018-02-18T04:42:15.903Z,91.00
2018-02-18T04:44:43.944Z,91.00
2018-02-18T04:47:12.043Z,91.40
2018-02-18T04:49:40.102Z,90.90
2018-02-18T04:52:08.205Z,91.00
2018-02-18T04:54:36.240Z,91.10
2018-02-18T04:57:05.046Z,91.30
2018-02-18T04:59:33.126Z,91.30
2018-02-18T05:02:02.189Z,91.70
2018-02-18T05:04:30.235Z,91.40
2018-02-18T05:06:58.963Z,91.30
2018-02-18T05:09:27.028Z,91.30
2018-02-18T05:11:55.106Z,91.40
2018-02-18T05:14:23.271Z,91.60
2018-02-18T05:16:51.297Z,91.50
2018-02-18T05:19:19.379Z,91.30
2018-02-18T05:21:47.432Z,91.00
2018-02-18T05:24:15.592Z,91.10
2018-02-18T05:26:44.508Z,90.90
2018-02-18T05:29:12.582Z,90.90
2018-02-18T05:31:40.712Z,91.10
2018-02-18T05:34:08.750Z,91.00
2018-02-18T05:36:36.836Z,90.50
2018-02-18T05:39:04.891Z,90.30
2018-02-18T05:41:33.726Z,89.60
2018-02-18T05:44:01.855Z,89.60
2018-02-18T05:46:29.911Z,89.50
2018-02-18T05:48:57.974Z,89.00
2018-02-18T05:51:26.028Z,89.50
2018-02-18T05:53:54.084Z,90.00
2018-02-18T05:56:22.170Z,90.10
2018-02-18T05:58:50.239Z,90.40
2018-02-18T06:01:18.396Z,90.50
2018-02-18T06:03:46.455Z,90.00
2018-02-18T06:06:16.437Z,90.30
2018-02-18T06:08:44.485Z,90.10
2018-02-18T06:11:12.565Z,90.30
2018-02-18T06:13:40.633Z,90.40
2018-02-18T06:16:09.476Z,90.40
2018-02-18T06:18:37.534Z,90.40
2018-02-18T06:21:05.645Z,90.60
2018-02-18T06:23:33.688Z,90.90
2018-02-18T06:26:02.515Z,90.90
2018-02-18T06:28:30.571Z,90.80
2018-02-18T06:30:59.413Z,91.20
2018-02-18T06:33:27.473Z,91.10
2018-02-18T06:35:55.545Z,91.10
2018-02-18T06:38:24.362Z,90.70
2018-02-18T06:40:52.438Z,90.60
2018-02-18T06:43:20.504Z,90.40
2018-02-18T06:45:49.332Z,90.30
2018-02-18T06:48:17.378Z,90.30
2018-02-18T06:50:45.453Z,90.20
2018-02-18T06:53:13.519Z,90.10
2018-02-18T06:55:41.587Z,90.50
2018-02-18T06:58:09.636Z,90.20
2018-02-18T07:00:37.715Z,90.20
2018-02-18T07:03:06.623Z,90.50
2018-02-18T07:05:35.435Z,90.70
2018-02-18T07:08:03.489Z,90.70
2018-02-18T07:10:32.311Z,90.70
2018-02-18T07:13:00.359Z,90.60
2018-02-18T07:15:28.425Z,90.50
2018-02-18T07:17:56.479Z,90.50
2018-02-18T07:20:24.543Z,90.60
2018-02-18T07:22:53.373Z,90.30
2018-02-18T07:25:21.431Z,90.30
2018-02-18T07:27:49.492Z,90.50
2018-02-18T07:30:18.307Z,90.20
2018-02-18T07:32:47.132Z,90.20
2018-02-18T07:35:15.200Z,90.20
2018-02-18T07:37:43.245Z,90.10
2018-02-18T07:40:11.399Z,90.20
2018-02-18T07:42:39.458Z,90.30
2018-02-18T07:45:07.512Z,89.70
2018-02-18T07:47:36.348Z,88.60
2018-02-18T07:50:04.422Z,88.60
2018-02-18T07:52:32.492Z,88.40
2018-02-18T07:55:00.547Z,88.40
2018-02-18T07:57:28.595Z,88.30
2018-02-18T07:59:56.645Z,88.60
2018-02-18T08:02:25.459Z,88.50
2018-02-18T08:04:53.512Z,88.40
2018-02-18T08:07:22.362Z,89.80
2018-02-18T08:09:50.433Z,89.70
2018-02-18T08:12:18.508Z,89.30
2018-02-18T08:14:46.557Z,87.90
2018-02-18T08:17:14.616Z,87.50
2018-02-18T08:19:42.686Z,88.20
2018-02-18T08:22:10.761Z,88.70
2018-02-18T08:24:38.802Z,89.00
2018-02-18T08:27:07.632Z,89.90
2018-02-18T08:29:35.691Z,89.80
2018-02-18T08:32:04.517Z,89.10
2018-02-18T08:34:32.551Z,89.10
2018-02-18T08:37:00.628Z,89.20
2018-02-18T08:39:28.683Z,89.60
2018-02-18T08:41:56.728Z,89.20
2018-02-18T08:44:24.804Z,89.10
2018-02-18T08:46:53.615Z,89.00
2018-02-18T08:49:21.693Z,89.00
2018-02-18T08:51:50.505Z,88.80
2018-02-18T08:54:18.736Z,88.70
2018-02-18T08:56:46.784Z,88.50
2018-02-18T08:59:14.866Z,87.00
2018-02-18T09:01:42.906Z,87.30
2018-02-18T09:04:10.968Z,87.70
2018-02-18T09:06:39.028Z,86.90
2018-02-18T09:09:07.093Z,86.30
2018-02-18T09:11:35.152Z,85.60
2018-02-18T09:14:03.972Z,84.70
2018-02-18T09:16:32.014Z,84.70
2018-02-18T09:19:00.077Z,83.20
2018-02-18T09:21:28.140Z,82.30
2018-02-18T09:23:56.203Z,82.70
2018-02-18T09:26:24.259Z,83.60
2018-02-18T09:28:52.326Z,83.30
2018-02-18T09:31:20.358Z,83.60
2018-02-18T09:33:48.421Z,84.80
2018-02-18T09:36:17.249Z,85.00
2018-02-18T09:38:45.321Z,84.90
2018-02-18T09:41:13.433Z,85.30
2018-02-18T09:43:41.489Z,85.50
2018-02-18T09:46:09.573Z,85.10
2018-02-18T09:48:37.643Z,84.60
2018-02-18T09:51:06.459Z,87.10
2018-02-18T09:53:34.511Z,87.10
2018-02-18T09:56:02.555Z,86.30
2018-02-18T09:58:30.625Z,85.00
2018-02-18T10:00:58.687Z,84.60
2018-02-18T10:03:26.765Z,84.80
2018-02-18T10:05:54.796Z,84.80
2018-02-18T10:08:22.853Z,84.00
2018-02-18T10:10:50.912Z,83.70
2018-02-18T10:13:19.719Z,85.30
2018-02-18T10:15:47.808Z,85.20
2018-02-18T10:18:15.850Z,86.20
2018-02-18T10:20:43.902Z,86.60
2018-02-18T10:23:11.967Z,86.60
2018-02-18T10:25:40.047Z,86.40
2018-02-18T10:28:08.282Z,87.00
2018-02-18T10:30:36.349Z,85.90
2018-02-18T10:33:04.464Z,86.80
2018-02-18T10:35:32.539Z,86.30
2018-02-18T10:38:00.597Z,86.80
2018-02-18T10:40:28.668Z,87.30
2018-02-18T10:42:56.723Z,87.70
2018-02-18T10:45:24.779Z,87.40
2018-02-18T10:47:52.826Z,86.80
2018-02-18T10:50:20.900Z,87.00
2018-02-18T10:52:48.980Z,86.40
2018-02-18T10:55:17.026Z,84.90
2018-02-18T10:57:45.863Z,84.90
2018-02-18T11:00:13.908Z,84.90
2018-02-18T11:02:42.719Z,84.30
2018-02-18T11:05:11.564Z,84.50
2018-02-18T11:07:39.617Z,84.50
2018-02-18T11:10:07.710Z,84.70
2018-02-18T11:12:35.989Z,86.20
2018-02-18T11:15:04.042Z,86.50
2018-02-18T11:17:32.126Z,86.50
2018-02-18T11:20:00.970Z,85.60
2018-02-18T11:22:29.049Z,85.50
2018-02-18T11:24:57.116Z,85.30
2018-02-18T11:27:25.412Z,84.10
2018-02-18T11:29:53.496Z,83.30
2018-02-18T11:32:21.526Z,84.70
2018-02-18T11:34:49.592Z,84.80
2018-02-18T11:37:17.659Z,83.40
2018-02-18T11:39:45.720Z,82.50
2018-02-18T11:42:13.806Z,83.30
2018-02-18T11:44:42.617Z,82.80
2018-02-18T11:47:10.687Z,82.80
2018-02-18T11:49:39.499Z,82.70
2018-02-18T11:52:07.616Z,82.60
2018-02-18T11:54:35.665Z,82.00
2018-02-18T11:57:04.575Z,80.50
2018-02-18T11:59:32.669Z,79.80
2018-02-18T12:02:00.727Z,80.40
2018-02-18T12:04:28.778Z,80.30
2018-02-18T12:06:57.510Z,80.60
2018-02-18T12:09:25.572Z,80.50
2018-02-18T12:11:54.455Z,83.00
2018-02-18T12:14:22.502Z,82.20
2018-02-18T12:16:50.563Z,82.70
2018-02-18T12:19:18.646Z,82.80
2018-02-18T12:21:46.715Z,83.20
2018-02-18T12:24:15.543Z,84.40
2018-02-18T12:26:43.617Z,84.40
2018-02-18T12:29:11.662Z,84.20
2018-02-18T12:31:39.876Z,84.30
2018-02-18T12:34:08.703Z,83.50
2018-02-18T12:36:36.845Z,83.40
2018-02-18T12:39:05.658Z,85.40
2018-02-18T12:41:34.478Z,85.80
2018-02-18T12:44:02.553Z,85.80
2018-02-18T12:46:30.675Z,85.90
2018-02-18T12:48:58.702Z,85.00
2018-02-18T12:51:27.521Z,86.00
2018-02-18T12:53:55.612Z,85.90
2018-02-18T12:56:23.651Z,86.50
2018-02-18T12:58:51.710Z,87.20
2018-02-18T13:01:19.751Z,87.60
2018-02-18T13:03:47.815Z,87.50
2018-02-18T13:06:16.637Z,87.40
2018-02-18T13:08:44.682Z,87.30
2018-02-18T13:11:12.757Z,87.20
2018-02-18T13:13:40.839Z,87.40
2018-02-18T13:16:08.920Z,87.70
2018-02-18T13:18:36.992Z,87.90
2018-02-18T13:21:05.068Z,87.70
2018-02-18T13:23:33.110Z,86.00
2018-02-18T13:26:01.960Z,84.30
2018-02-18T13:28:30.017Z,84.30
2018-02-18T13:30:58.116Z,81.00
2018-02-18T13:33:26.942Z,82.20
2018-02-18T13:35:55.004Z,82.20
2018-02-18T13:38:23.858Z,84.20
2018-02-18T13:40:52.740Z,85.40
2018-02-18T13:43:20.847Z,85.40
2018-02-18T13:45:49.706Z,84.80
2018-02-18T13:48:17.757Z,84.70
2018-02-18T13:50:45.824Z,85.50
2018-02-18T13:53:14.642Z,86.90
2018-02-18T13:55:42.691Z,86.80
2018-02-18T13:58:11.527Z,86.70
2018-02-18T14:00:39.704Z,86.70
2018-02-18T14:03:07.760Z,86.50
2018-02-18T14:05:35.806Z,86.40
2018-02-18T14:08:04.113Z,86.20
2018-02-18T14:10:32.341Z,85.90
2018-02-18T14:13:01.207Z,86.40
2018-02-18T14:15:29.453Z,86.30
2018-02-18T14:17:57.524Z,86.30
2018-02-18T14:20:25.638Z,86.50
2018-02-18T14:22:53.687Z,87.00
2018-02-18T14:25:21.744Z,87.20
2018-02-18T14:27:50.582Z,88.60
2018-02-18T14:30:18.652Z,88.00
2018-02-18T14:32:46.695Z,88.60
2018-02-18T14:35:14.765Z,88.60
2018-02-18T14:37:42.835Z,88.40
2018-02-18T14:40:10.891Z,87.60
2018-02-18T14:42:50.840Z,88.10
2018-02-18T14:45:31.610Z,88.60
2018-02-18T14:48:12.306Z,87.50
2018-02-18T14:53:56.143Z,86.20
2018-02-18T14:59:24.483Z,85.90
2018-02-18T15:01:52.557Z,87.20
2018-02-18T15:04:20.615Z,87.80
2018-02-18T15:06:48.701Z,86.40
2018-02-18T15:09:16.757Z,84.90
2018-02-18T15:11:45.601Z,80.70
2018-02-18T15:14:13.745Z,80.70
2018-02-18T15:16:42.564Z,79.30
2018-02-18T15:19:10.620Z,79.10
2018-02-18T15:21:39.427Z,79.50
2018-02-18T15:24:07.488Z,79.50
2018-02-18T15:26:35.540Z,79.10
2018-02-18T15:29:03.656Z,79.40
2018-02-18T15:31:31.682Z,77.70
2018-02-18T15:33:59.752Z,78.50
2018-02-18T15:36:28.398Z,79.20
2018-02-18T15:38:56.512Z,79.50
2018-02-18T15:41:25.337Z,78.70
2018-02-18T15:43:54.479Z,78.60
2018-02-18T15:46:23.874Z,79.40
2018-02-18T15:48:52.114Z,79.80
2018-02-18T15:51:20.167Z,80.90
2018-02-18T15:53:48.215Z,79.50
2018-02-18T15:56:16.288Z,78.80
2018-02-18T15:58:45.104Z,79.60
2018-02-18T16:01:13.194Z,79.60
2018-02-18T16:03:41.252Z,80.70
2018-02-18T16:06:10.140Z,79.20
2018-02-18T16:08:38.957Z,80.30
2018-02-18T16:11:07.015Z,80.30
2018-02-18T16:13:35.071Z,79.60
2018-02-18T16:16:03.147Z,78.60
2018-02-18T16:18:31.207Z,78.50
2018-02-18T16:20:59.237Z,78.20
2018-02-18T16:23:27.305Z,79.10
2018-02-18T16:25:55.347Z,79.10
2018-02-18T16:28:23.414Z,83.00
2018-02-18T16:30:52.291Z,81.00
2018-02-18T16:33:20.329Z,81.00
2018-02-18T16:35:48.375Z,80.80
2018-02-18T16:38:17.193Z,81.20
2018-02-18T16:40:45.259Z,81.10
2018-02-18T16:43:14.145Z,81.80
2018-02-18T16:45:42.197Z,81.70
2018-02-18T16:48:10.244Z,81.80
2018-02-18T16:50:38.359Z,82.40
2018-02-18T16:53:06.456Z,82.30
2018-02-18T16:55:34.539Z,83.70
2018-02-18T16:58:02.626Z,83.20
2018-02-18T17:00:31.742Z,84.50
2018-02-18T17:03:00.856Z,85.00
2018-02-18T17:05:28.998Z,84.10
2018-02-18T17:07:57.038Z,83.00
2018-02-18T17:10:25.861Z,83.80
2018-02-18T17:12:53.909Z,83.80
2018-02-18T17:15:21.982Z,85.00
2018-02-18T17:17:50.032Z,84.90
2018-02-18T17:20:18.106Z,83.20
2018-02-18T17:22:46.259Z,84.00
2018-02-18T17:25:15.117Z,83.50
2018-02-18T17:27:43.195Z,83.50
2018-02-18T17:30:11.247Z,83.40
2018-02-18T17:32:39.332Z,83.00
2018-02-18T17:35:07.380Z,83.10
2018-02-18T17:37:35.531Z,83.20
2018-02-18T17:40:04.594Z,83.90
2018-02-18T17:42:33.420Z,83.70
2018-02-18T17:45:01.489Z,83.70
2018-02-18T17:47:31.298Z,83.00
2018-02-18T17:50:00.220Z,83.80
2018-02-18T17:52:28.266Z,83.70
2018-02-18T17:54:56.342Z,83.70
2018-02-18T17:57:24.404Z,83.30
2018-02-18T17:59:52.454Z,84.20
2018-02-18T18:02:20.504Z,84.00
2018-02-18T18:04:48.555Z,85.00
2018-02-18T18:07:16.617Z,85.40
2018-02-18T18:09:44.662Z,85.50
2018-02-18T18:12:12.709Z,85.40
2018-02-18T18:14:40.773Z,85.10
2018-02-18T18:17:08.837Z,85.20
2018-02-18T18:19:36.917Z,84.50
2018-02-18T18:22:05.731Z,84.30
2018-02-18T18:24:33.776Z,84.30
2018-02-18T18:27:01.858Z,84.30
2018-02-18T18:29:29.911Z,84.60
2018-02-18T18:31:57.973Z,85.40
2018-02-18T18:34:26.043Z,84.90
2018-02-18T18:36:54.094Z,82.60
2018-02-18T18:39:22.910Z,82.70
2018-02-18T18:41:51.731Z,81.50
2018-02-18T18:44:19.801Z,81.50
2018-02-18T18:46:47.859Z,81.60
2018-02-18T18:49:15.944Z,81.70
2018-02-18T18:51:44.059Z,82.30
2018-02-18T18:54:12.323Z,82.20
2018-02-18T18:56:40.375Z,79.10
2018-02-18T18:59:08.433Z,81.00
2018-02-18T19:01:36.496Z,81.20
2018-02-18T19:04:04.561Z,81.70
2018-02-18T19:06:33.422Z,80.70
2018-02-18T19:09:01.475Z,80.60
2018-02-18T19:11:29.538Z,79.20
2018-02-18T19:13:58.361Z,80.60
2018-02-18T19:16:26.505Z,80.50
2018-02-18T19:18:54.559Z,80.10
2018-02-18T19:21:22.621Z,82.90
2018-02-18T19:23:50.676Z,83.40
2018-02-18T19:26:18.959Z,81.00
2018-02-18T19:28:47.809Z,82.00
2018-02-18T19:31:15.871Z,82.00
2018-02-18T19:33:43.944Z,81.40
2018-02-18T19:36:12.016Z,81.70
2018-02-18T19:38:40.837Z,83.50
2018-02-18T19:41:08.896Z,83.40
2018-02-18T19:43:37.731Z,85.00
2018-02-18T19:46:05.789Z,85.00
2018-02-18T19:48:33.845Z,84.30
2018-02-18T19:51:01.900Z,84.20
2018-02-18T19:53:29.966Z,84.60
2018-02-18T19:55:58.802Z,85.00
2018-02-18T19:58:26.860Z,85.00
2018-02-18T20:00:54.902Z,83.80
2018-02-18T20:03:22.961Z,83.00
2018-02-18T20:05:51.016Z,82.80
2018-02-18T20:08:19.074Z,82.90
2018-02-18T20:10:47.152Z,81.70
2018-02-18T20:13:15.244Z,82.30
2018-02-18T20:15:43.262Z,82.30
2018-02-18T20:18:11.316Z,81.40
2018-02-18T20:20:39.374Z,81.00
2018-02-18T20:23:07.447Z,81.70
2018-02-18T20:25:36.457Z,79.10
2018-02-18T20:28:04.644Z,79.00
2018-02-18T20:30:32.694Z,80.10
2018-02-18T20:33:00.959Z,77.30
2018-02-18T20:35:29.015Z,78.80
2018-02-18T20:37:57.061Z,77.80
2018-02-18T20:40:25.900Z,77.70
2018-02-18T20:42:53.958Z,77.70
2018-02-18T20:45:22.794Z,77.70
2018-02-18T20:47:50.859Z,77.60
2018-02-18T20:50:18.952Z,75.90
2018-02-18T20:52:47.017Z,75.20
2018-02-18T20:55:15.081Z,76.60
2018-02-18T20:57:43.142Z,76.50
2018-02-18T21:00:11.201Z,76.80
2018-02-18T21:02:39.260Z,75.50
2018-02-18T21:05:07.312Z,78.20
2018-02-18T21:07:35.364Z,78.10
2018-02-18T21:10:03.500Z,74.60
2018-02-18T21:12:31.566Z,75.00
2018-02-18T21:15:00.384Z,77.20
2018-02-18T21:17:28.435Z,77.10
2018-02-18T21:19:56.494Z,75.30
2018-02-18T21:22:24.547Z,75.90
2018-02-18T21:24:52.616Z,78.10
2018-02-18T21:27:20.664Z,76.00
2018-02-18T21:29:48.732Z,76.90
2018-02-18T21:32:17.465Z,77.10
2018-02-18T21:34:45.500Z,77.30
2018-02-18T21:37:13.545Z,77.60
2018-02-18T21:39:41.677Z,77.20
2018-02-18T21:42:09.732Z,74.60
2018-02-18T21:44:38.483Z,76.80
2018-02-18T21:47:07.359Z,76.80
2018-02-18T21:49:35.388Z,77.50
2018-02-18T21:52:04.377Z,77.60
2018-02-18T21:54:32.424Z,77.60
2018-02-18T21:57:00.500Z,77.70
2018-02-18T21:59:28.723Z,75.60
2018-02-18T22:01:56.771Z,78.20
2018-02-18T22:04:25.069Z,77.10
2018-02-18T22:06:53.165Z,76.50
2018-02-18T22:09:21.177Z,78.20
2018-02-18T22:11:50.020Z,75.60
2018-02-18T22:14:18.078Z,75.50
2018-02-18T22:16:46.137Z,75.60
2018-02-18T22:19:14.241Z,76.30
2018-02-18T22:21:43.057Z,77.30
2018-02-18T22:24:11.182Z,77.30
2018-02-18T22:26:39.231Z,78.10
2018-02-18T22:29:07.320Z,76.70
2018-02-18T22:31:36.284Z,74.40
2018-02-18T22:34:05.114Z,78.30
2018-02-18T22:36:33.155Z,78.30
2018-02-18T22:39:01.212Z,77.20
2018-02-18T22:41:29.337Z,78.00
2018-02-18T22:43:58.204Z,76.10
2018-02-18T22:46:26.263Z,76.10
2018-02-18T22:48:54.334Z,78.20
2018-02-18T22:51:22.397Z,76.50
2018-02-18T22:53:51.218Z,77.80
2018-02-18T22:56:19.304Z,77.70
2018-02-18T22:58:47.354Z,78.70
2018-02-18T23:01:15.537Z,77.90
2018-02-18T23:03:44.511Z,76.10
2018-02-18T23:06:12.456Z,78.40
2018-02-18T23:08:40.499Z,78.60
2018-02-18T23:11:08.573Z,78.10
2018-02-18T23:13:36.618Z,77.30
2018-02-18T23:16:04.707Z,76.90
2018-02-18T23:18:32.783Z,75.30
2018-02-18T23:21:08.364Z,77.60
2018-02-18T23:23:36.411Z,77.60
2018-02-18T23:26:04.468Z,78.40
2018-02-18T23:28:33.299Z,78.10
2018-02-18T23:31:01.368Z,78.20
2018-02-18T23:33:30.201Z,76.80
2018-02-18T23:35:58.279Z,76.80
2018-02-18T23:38:26.355Z,78.10
2018-02-18T23:40:54.402Z,77.90
2018-02-18T23:43:22.752Z,77.90
2018-02-18T23:45:50.776Z,80.30
2018-02-18T23:48:18.956Z,79.90
2018-02-18T23:50:47.006Z,80.00
2018-02-18T23:53:15.582Z,80.60
2018-02-18T23:55:43.667Z,78.80
2018-02-18T23:58:11.732Z,78.70
